createdAt,value
2019-05-20T00:00:57.973Z,11.2
2019-05-20T00:01:58.036Z,11.3
2019-05-20T00:02:58.022Z,11.2
2019-05-20T00:03:58.053Z,11.2
2019-05-20T00:04:58.079Z,11.2
2019-05-20T00:05:58.181Z,11.2
2019-05-20T00:06:58.077Z,11
2019-05-20T00:07:58.117Z,11
2019-05-20T00:08:58.112Z,11
2019-05-20T00:09:58.170Z,11
2019-05-20T00:10:58.176Z,11.1
2019-05-20T00:11:58.163Z,11.1
2019-05-20T00:12:58.179Z,11.1
2019-05-20T00:13:58.241Z,11.2
2019-05-20T00:14:58.224Z,11.3
2019-05-20T00:15:58.226Z,11.2
2019-05-20T00:16:58.230Z,11
2019-05-20T00:17:58.272Z,10.9
2019-05-20T00:18:58.256Z,11
2019-05-20T00:19:58.286Z,11.1
2019-05-20T00:20:58.264Z,11.2
2019-05-20T00:21:58.309Z,11.3
2019-05-20T00:22:58.309Z,11.2
2019-05-20T00:23:58.269Z,11.2
2019-05-20T00:24:58.270Z,11.3
2019-05-20T00:25:58.271Z,11.3
2019-05-20T00:26:58.285Z,11.3
2019-05-20T00:27:58.322Z,11.3
2019-05-20T00:28:58.350Z,11.3
2019-05-20T00:29:58.374Z,11.3
2019-05-20T00:30:58.451Z,11.3
2019-05-20T00:31:58.522Z,11.3
2019-05-20T00:32:58.557Z,11.3
2019-05-20T00:33:58.561Z,11.4
2019-05-20T00:34:58.604Z,11.4
2019-05-20T00:35:58.654Z,11.5
2019-05-20T00:36:58.651Z,11.5
2019-05-20T00:37:58.728Z,11.4
2019-05-20T00:38:58.814Z,11.2
2019-05-20T00:39:58.835Z,11.4
2019-05-20T00:40:58.812Z,11.5
2019-05-20T00:41:58.887Z,11.4
2019-05-20T00:42:58.956Z,11.5
2019-05-20T00:43:58.973Z,11.4
2019-05-20T00:44:58.963Z,11.6
2019-05-20T00:45:58.989Z,11.6
2019-05-20T00:46:59.056Z,11.5
2019-05-20T00:47:59.102Z,11.7
2019-05-20T00:48:59.199Z,11.6
2019-05-20T00:49:59.191Z,11.5
2019-05-20T00:50:59.207Z,11.6
2019-05-20T00:51:59.258Z,11.6
2019-05-20T00:52:59.299Z,11.7
2019-05-20T00:53:59.381Z,11.7
2019-05-20T00:54:59.399Z,11.8
2019-05-20T00:55:59.472Z,11.7
2019-05-20T00:56:59.497Z,11.7
2019-05-20T00:57:59.548Z,11.7
2019-05-20T00:58:59.546Z,11.8
2019-05-20T00:59:59.615Z,11.8
2019-05-20T01:00:59.624Z,11.8
2019-05-20T01:01:59.643Z,11.6
2019-05-20T01:02:59.667Z,11.5
2019-05-20T01:03:59.663Z,11.5
2019-05-20T01:04:59.680Z,11.3
2019-05-20T01:05:59.730Z,11.5
2019-05-20T01:06:59.773Z,11.6
2019-05-20T01:07:59.814Z,11.7
2019-05-20T01:08:59.811Z,11.7
2019-05-20T01:09:59.873Z,11.7
2019-05-20T01:10:59.908Z,11.7
2019-05-20T01:11:59.955Z,11.7
2019-05-20T01:12:59.953Z,11.6
2019-05-20T01:13:59.961Z,11.6
2019-05-20T01:14:59.958Z,11.6
2019-05-20T01:16:00.005Z,11.5
2019-05-20T01:17:00.008Z,11.6
2019-05-20T01:18:00.024Z,11.6
2019-05-20T01:19:00.097Z,11.6
2019-05-20T01:20:00.160Z,11.6
2019-05-20T01:21:02.911Z,11.7
2019-05-20T01:22:00.211Z,11.7
2019-05-20T01:23:00.201Z,11.7
2019-05-20T01:24:00.260Z,11.7
2019-05-20T01:25:00.246Z,11.7
2019-05-20T01:26:00.263Z,11.7
2019-05-20T01:27:00.360Z,11.8
2019-05-20T01:28:00.361Z,11.8
2019-05-20T01:29:00.399Z,11.7
2019-05-20T01:30:00.398Z,11.9
2019-05-20T01:31:00.413Z,11.9
2019-05-20T01:32:00.427Z,12.1
2019-05-20T01:33:12.676Z,11.8
2019-05-20T01:34:00.571Z,11.7
2019-05-20T01:35:00.505Z,11.6
2019-05-20T01:36:00.528Z,11.8
2019-05-20T01:37:00.547Z,11.8
2019-05-20T01:38:00.591Z,11.8
2019-05-20T01:39:00.599Z,11.9
2019-05-20T01:40:00.663Z,11.9
2019-05-20T01:41:00.625Z,11.9
2019-05-20T01:42:00.881Z,11.9
2019-05-20T01:43:00.678Z,12
2019-05-20T01:44:00.686Z,11.9
2019-05-20T01:45:00.751Z,11.7
2019-05-20T01:46:00.722Z,11.5
2019-05-20T01:47:00.768Z,11.5
2019-05-20T01:48:00.789Z,11.6
2019-05-20T01:49:00.825Z,11.7
2019-05-20T01:50:00.809Z,11.7
2019-05-20T01:51:00.818Z,11.8
2019-05-20T01:52:00.983Z,11.9
2019-05-20T01:53:00.857Z,11.9
2019-05-20T01:54:00.858Z,11.9
2019-05-20T01:55:00.918Z,11.9
2019-05-20T01:56:00.918Z,11.9
2019-05-20T01:57:00.905Z,11.8
2019-05-20T01:58:00.919Z,11.8
2019-05-20T01:59:00.942Z,11.8
2019-05-20T02:00:00.982Z,11.7
2019-05-20T02:01:00.956Z,11.8
2019-05-20T02:02:00.980Z,11.8
2019-05-20T02:03:00.972Z,11.8
2019-05-20T02:04:00.968Z,11.7
2019-05-20T02:05:00.999Z,11.7
2019-05-20T02:06:00.971Z,11.6
2019-05-20T02:07:00.992Z,11.6
2019-05-20T02:08:00.986Z,11.6
2019-05-20T02:09:00.989Z,11.6
2019-05-20T02:10:01.031Z,11.6
2019-05-20T02:11:01.013Z,11.7
2019-05-20T02:12:01.017Z,11.7
2019-05-20T02:13:01.070Z,11.6
2019-05-20T02:14:01.308Z,11.6
2019-05-20T02:15:01.345Z,11.6
2019-05-20T02:16:01.240Z,11.5
2019-05-20T02:17:02.734Z,11.6
2019-05-20T02:18:01.330Z,11.6
2019-05-20T02:19:01.324Z,11.5
2019-05-20T02:20:01.368Z,11.6
2019-05-20T02:21:01.402Z,11.5
2019-05-20T02:22:01.794Z,11.5
2019-05-20T02:23:01.562Z,11.6
2019-05-20T02:24:01.577Z,11.5
2019-05-20T02:25:01.633Z,11.5
2019-05-20T02:26:01.693Z,11.5
2019-05-20T02:27:01.644Z,11.6
2019-05-20T02:28:01.717Z,11.6
2019-05-20T02:29:01.750Z,11.7
2019-05-20T02:30:01.811Z,11.7
2019-05-20T02:31:01.846Z,11.6
2019-05-20T02:32:01.883Z,11.7
2019-05-20T02:33:01.909Z,11.6
2019-05-20T02:34:01.986Z,11.6
2019-05-20T02:35:02.035Z,11.6
2019-05-20T02:36:02.078Z,11.6
2019-05-20T02:37:02.094Z,11.6
2019-05-20T02:38:02.116Z,11.7
2019-05-20T02:39:02.196Z,11.5
2019-05-20T02:40:02.215Z,11.5
2019-05-20T02:41:02.266Z,11.5
2019-05-20T02:42:02.363Z,11.6
2019-05-20T02:43:02.316Z,11.5
2019-05-20T02:44:02.305Z,11.4
2019-05-20T02:45:02.366Z,11.4
2019-05-20T02:46:02.433Z,11.4
2019-05-20T02:47:02.446Z,11.4
2019-05-20T02:48:02.511Z,11.5
2019-05-20T02:49:02.565Z,11.4
2019-05-20T02:50:02.633Z,11.3
2019-05-20T02:51:02.643Z,11.2
2019-05-20T02:52:02.685Z,11.2
2019-05-20T02:53:02.759Z,11.2
2019-05-20T02:54:02.890Z,11.2
2019-05-20T02:55:02.798Z,11.2
2019-05-20T02:56:02.862Z,11.1
2019-05-20T02:57:02.898Z,11.1
2019-05-20T02:58:02.925Z,11.1
2019-05-20T02:59:02.918Z,11.1
2019-05-20T03:00:02.909Z,11.1
2019-05-20T03:01:02.938Z,11.1
2019-05-20T03:02:02.954Z,11.1
2019-05-20T03:03:02.997Z,11.1
2019-05-20T03:04:11.307Z,11.1
2019-05-20T03:05:03.066Z,11
2019-05-20T03:06:03.107Z,11.1
2019-05-20T03:07:03.166Z,11.3
2019-05-20T03:08:03.213Z,11.1
2019-05-20T03:09:03.222Z,11
2019-05-20T03:10:03.270Z,11
2019-05-20T03:11:03.289Z,11
2019-05-20T03:12:03.370Z,10.8
2019-05-20T03:13:03.381Z,10.8
2019-05-20T03:14:03.408Z,10.8
2019-05-20T03:15:03.464Z,10.8
2019-05-20T03:16:05.959Z,10.8
2019-05-20T03:17:03.744Z,10.7
2019-05-20T03:18:03.572Z,10.7
2019-05-20T03:19:06.094Z,10.8
2019-05-20T03:20:03.647Z,10.8
2019-05-20T03:21:03.663Z,10.8
2019-05-20T03:22:03.649Z,10.9
2019-05-20T03:23:03.703Z,10.9
2019-05-20T03:24:03.741Z,11
2019-05-20T03:25:03.765Z,11
2019-05-20T03:26:03.764Z,11.3
2019-05-20T03:27:03.782Z,11
2019-05-20T03:28:03.798Z,11.1
2019-05-20T03:29:03.894Z,11.1
2019-05-20T03:30:03.929Z,11.1
2019-05-20T03:31:03.903Z,11.1
2019-05-20T03:32:03.980Z,11
2019-05-20T03:33:03.978Z,11
2019-05-20T03:34:04.041Z,11
2019-05-20T03:35:04.015Z,11
2019-05-20T03:36:04.047Z,11
2019-05-20T03:37:04.018Z,11.1
2019-05-20T03:38:04.071Z,11.1
2019-05-20T03:39:04.081Z,11.2
2019-05-20T03:40:04.114Z,11.1
2019-05-20T03:41:04.112Z,11
2019-05-20T03:42:04.129Z,10.9
2019-05-20T03:43:04.172Z,10.9
2019-05-20T03:44:04.172Z,11
2019-05-20T03:45:04.205Z,11
2019-05-20T03:46:04.623Z,10.9
2019-05-20T03:47:04.255Z,10.9
2019-05-20T03:48:04.267Z,10.9
2019-05-20T03:49:06.531Z,10.9
2019-05-20T03:50:04.261Z,10.9
2019-05-20T03:51:04.290Z,10.9
2019-05-20T03:52:04.284Z,10.9
2019-05-20T03:53:04.291Z,10.9
2019-05-20T03:54:04.320Z,10.9
2019-05-20T03:55:04.308Z,10.9
2019-05-20T03:56:04.345Z,10.9
2019-05-20T03:57:04.322Z,10.9
2019-05-20T03:58:04.340Z,10.9
2019-05-20T03:59:04.357Z,11
2019-05-20T04:00:04.359Z,11
2019-05-20T04:01:04.406Z,11.1
2019-05-20T04:02:04.357Z,11.1
2019-05-20T04:03:04.394Z,11.2
2019-05-20T04:04:04.357Z,11.2
2019-05-20T04:05:04.377Z,11.2
2019-05-20T04:06:04.373Z,11.2
2019-05-20T04:07:04.572Z,11.3
2019-05-20T04:08:04.579Z,11.3
2019-05-20T04:09:04.431Z,11.4
2019-05-20T04:10:04.529Z,11.4
2019-05-20T04:11:04.543Z,11.5
2019-05-20T04:12:04.609Z,11.5
2019-05-20T04:13:04.614Z,11.5
2019-05-20T04:14:04.602Z,11.4
2019-05-20T04:15:04.674Z,11.6
2019-05-20T04:16:04.678Z,11.6
2019-05-20T04:17:04.764Z,11.6
2019-05-20T04:18:04.775Z,11.6
2019-05-20T04:19:04.763Z,11.5
2019-05-20T04:20:04.842Z,11.4
2019-05-20T04:21:04.897Z,11.5
2019-05-20T04:22:05.006Z,11.5
2019-05-20T04:23:05.030Z,11.5
2019-05-20T04:24:05.053Z,11.6
2019-05-20T04:25:05.024Z,11.6
2019-05-20T04:26:05.064Z,11.7
2019-05-20T04:27:05.091Z,11.7
2019-05-20T04:28:05.174Z,11.8
2019-05-20T04:29:05.234Z,11.7
2019-05-20T04:30:05.223Z,11.7
2019-05-20T04:31:05.243Z,11.7
2019-05-20T04:32:05.305Z,11.7
2019-05-20T04:33:05.360Z,11.7
2019-05-20T04:34:05.407Z,11.7
2019-05-20T04:35:20.364Z,11.7
2019-05-20T04:36:05.487Z,11.8
2019-05-20T04:37:05.510Z,11.7
2019-05-20T04:38:05.554Z,11.8
2019-05-20T04:39:05.562Z,11.7
2019-05-20T04:40:05.596Z,11.7
2019-05-20T04:41:05.676Z,11.8
2019-05-20T04:42:06.816Z,11.9
2019-05-20T04:43:05.731Z,11.9
2019-05-20T04:44:05.750Z,12
2019-05-20T04:45:05.793Z,12.1
2019-05-20T04:46:05.846Z,12.2
2019-05-20T04:47:05.902Z,12.2
2019-05-20T04:48:05.936Z,12.3
2019-05-20T04:49:05.994Z,12.2
2019-05-20T04:50:06.016Z,12.2
2019-05-20T04:51:06.043Z,12.2
2019-05-20T04:52:06.115Z,12.3
2019-05-20T04:53:06.158Z,12.3
2019-05-20T04:54:06.178Z,12.3
2019-05-20T04:55:06.237Z,12.4
2019-05-20T04:56:06.282Z,12.4
2019-05-20T04:57:06.324Z,12.3
2019-05-20T04:58:06.410Z,12.3
2019-05-20T04:59:06.414Z,12.5
2019-05-20T05:00:06.413Z,12.2
2019-05-20T05:01:06.470Z,12.2
2019-05-20T05:02:06.500Z,12.1
2019-05-20T05:03:06.554Z,12.1
2019-05-20T05:04:06.594Z,12.2
2019-05-20T05:05:06.677Z,12.2
2019-05-20T05:06:06.642Z,12.3
2019-05-20T05:07:06.625Z,12.2
2019-05-20T05:08:06.661Z,12.2
2019-05-20T05:09:06.762Z,12.3
2019-05-20T05:10:06.774Z,12.3
2019-05-20T05:11:06.803Z,12.4
2019-05-20T05:12:06.818Z,12.3
2019-05-20T05:13:06.871Z,12.2
2019-05-20T05:14:06.941Z,12.2
2019-05-20T05:15:07.965Z,12.3
2019-05-20T05:16:06.957Z,12.3
2019-05-20T05:17:06.999Z,12.5
2019-05-20T05:18:07.024Z,12.7
2019-05-20T05:19:07.099Z,12.8
2019-05-20T05:20:07.102Z,12.8
2019-05-20T05:21:07.159Z,12.9
2019-05-20T05:22:07.179Z,13
2019-05-20T05:23:07.193Z,13
2019-05-20T05:24:07.426Z,13
2019-05-20T05:25:07.225Z,12.9
2019-05-20T05:26:07.247Z,12.8
2019-05-20T05:27:07.300Z,12.8
2019-05-20T05:28:07.307Z,12.6
2019-05-20T05:29:07.417Z,12.3
2019-05-20T05:30:07.365Z,12.5
2019-05-20T05:31:07.365Z,12.6
2019-05-20T05:32:07.422Z,12.7
2019-05-20T05:33:07.408Z,12.7
2019-05-20T05:34:07.473Z,12.6
2019-05-20T05:35:07.426Z,12.7
2019-05-20T05:36:07.441Z,12.8
2019-05-20T05:37:07.483Z,13
2019-05-20T05:38:07.523Z,13.3
2019-05-20T05:39:07.509Z,13.3
2019-05-20T05:40:08.266Z,13.4
2019-05-20T05:41:07.487Z,13.3
2019-05-20T05:42:07.530Z,13.3
2019-05-20T05:43:07.510Z,13.3
2019-05-20T05:44:07.542Z,13.3
2019-05-20T05:45:07.545Z,13.2
2019-05-20T05:46:07.555Z,13.2
2019-05-20T05:47:07.593Z,13.2
2019-05-20T05:48:07.557Z,13.4
2019-05-20T05:49:07.556Z,13.3
2019-05-20T05:50:07.562Z,13.2
2019-05-20T05:51:07.574Z,13.4
2019-05-20T05:52:07.609Z,13.3
2019-05-20T05:53:07.575Z,13.1
2019-05-20T05:54:07.587Z,13.1
2019-05-20T05:55:07.654Z,13.3
2019-05-20T05:56:07.636Z,13.3
2019-05-20T05:57:07.595Z,13.2
2019-05-20T05:58:08.648Z,13.1
2019-05-20T05:59:07.782Z,13
2019-05-20T06:00:07.771Z,13.1
2019-05-20T06:01:07.848Z,13.4
2019-05-20T06:02:07.877Z,13.7
2019-05-20T06:03:07.875Z,13.7
2019-05-20T06:04:07.992Z,13.4
2019-05-20T06:05:08.008Z,13.1
2019-05-20T06:06:12.448Z,13.1
2019-05-20T06:07:08.129Z,13
2019-05-20T06:08:08.135Z,13
2019-05-20T06:09:08.302Z,13.1
2019-05-20T06:10:08.228Z,13.2
2019-05-20T06:11:08.281Z,13.2
2019-05-20T06:12:08.333Z,13.4
2019-05-20T06:13:08.364Z,13.3
2019-05-20T06:14:08.407Z,13.2
2019-05-20T06:15:08.449Z,13
2019-05-20T06:16:08.496Z,13
2019-05-20T06:17:08.594Z,13.1
2019-05-20T06:18:08.582Z,13.2
2019-05-20T06:19:08.647Z,13.5
2019-05-20T06:20:08.677Z,13.5
2019-05-20T06:21:08.733Z,13.4
2019-05-20T06:22:08.825Z,13.3
2019-05-20T06:23:08.847Z,13.5
2019-05-20T06:24:08.895Z,13.5
2019-05-20T06:25:09.028Z,13.4
2019-05-20T06:26:09.034Z,13.6
2019-05-20T06:27:09.062Z,13.9
2019-05-20T06:28:09.094Z,13.9
2019-05-20T06:29:09.130Z,13.7
2019-05-20T06:30:09.264Z,13.9
2019-05-20T06:31:09.217Z,14.1
2019-05-20T06:32:09.284Z,14.4
2019-05-20T06:33:09.281Z,14.5
2019-05-20T06:34:09.321Z,14.5
2019-05-20T06:35:09.497Z,14.3
2019-05-20T06:36:09.398Z,14
2019-05-20T06:37:09.413Z,13.8
2019-05-20T06:38:09.475Z,13.6
2019-05-20T06:39:09.489Z,13.4
2019-05-20T06:40:09.581Z,13.3
2019-05-20T06:41:09.622Z,13.2
2019-05-20T06:42:09.648Z,13.3
2019-05-20T06:43:09.733Z,13.6
2019-05-20T06:44:09.738Z,13.9
2019-05-20T06:45:09.812Z,14.1
2019-05-20T06:46:09.809Z,14.4
2019-05-20T06:47:09.837Z,14.4
2019-05-20T06:48:09.911Z,14.4
2019-05-20T06:49:09.922Z,14.2
2019-05-20T06:50:09.966Z,14.1
2019-05-20T06:51:10.031Z,13.9
2019-05-20T06:52:10.301Z,14.3
2019-05-20T06:53:10.152Z,14.1
2019-05-20T06:54:10.140Z,13.9
2019-05-20T06:55:10.213Z,13.8
2019-05-20T06:56:10.268Z,13.7
2019-05-20T06:57:10.500Z,13.6
2019-05-20T06:58:11.546Z,13.5
2019-05-20T06:59:10.322Z,13.6
2019-05-20T07:00:10.361Z,13.5
2019-05-20T07:01:10.478Z,13.6
2019-05-20T07:02:10.454Z,13.4
2019-05-20T07:03:10.537Z,13.4
2019-05-20T07:04:10.521Z,14
2019-05-20T07:05:10.535Z,14.4
2019-05-20T07:06:10.573Z,14.4
2019-05-20T07:07:20.224Z,14
2019-05-20T07:08:10.646Z,13.5
2019-05-20T07:09:10.738Z,13.4
2019-05-20T07:10:10.673Z,13.6
2019-05-20T07:11:10.701Z,13.6
2019-05-20T07:12:10.729Z,13.9
2019-05-20T07:13:10.783Z,14.1
2019-05-20T07:14:10.732Z,13.1
2019-05-20T07:15:10.762Z,13.3
2019-05-20T07:16:10.783Z,13.4
2019-05-20T07:17:10.838Z,13.8
2019-05-20T07:18:10.947Z,13.6
2019-05-20T07:19:10.885Z,13.5
2019-05-20T07:20:10.897Z,13.1
2019-05-20T07:21:11.000Z,13.3
2019-05-20T07:22:10.965Z,13.4
2019-05-20T07:23:10.970Z,13.5
2019-05-20T07:24:11.143Z,13.3
2019-05-20T07:25:11.017Z,13.2
2019-05-20T07:26:11.055Z,13.3
2019-05-20T07:27:11.143Z,13.6
2019-05-20T07:28:11.081Z,13.6
2019-05-20T07:29:11.063Z,13.3
2019-05-20T07:30:14.874Z,13.3
2019-05-20T07:31:11.131Z,13.2
2019-05-20T07:32:11.135Z,13.2
2019-05-20T07:33:11.139Z,13.3
2019-05-20T07:34:11.157Z,13.5
2019-05-20T07:35:26.248Z,12.9
2019-05-20T07:36:11.184Z,13
2019-05-20T07:37:11.189Z,12.9
2019-05-20T07:38:11.248Z,13
2019-05-20T07:39:11.385Z,12.9
2019-05-20T07:40:11.235Z,12.9
2019-05-20T07:41:11.288Z,13.1
2019-05-20T07:42:11.264Z,13.3
2019-05-20T07:43:11.270Z,13.1
2019-05-20T07:44:11.308Z,13.1
2019-05-20T07:45:11.286Z,12.9
2019-05-20T07:46:11.326Z,13.1
2019-05-20T07:47:11.392Z,13
2019-05-20T07:48:11.305Z,12.8
2019-05-20T07:49:12.024Z,12.9
2019-05-20T07:50:11.306Z,13.1
2019-05-20T07:51:11.373Z,13
2019-05-20T07:52:11.517Z,13
2019-05-20T07:53:11.362Z,13.1
2019-05-20T07:54:11.373Z,13.5
2019-05-20T07:55:11.343Z,13.6
2019-05-20T07:56:11.397Z,13.7
2019-05-20T07:57:11.464Z,13.3
2019-05-20T07:58:11.512Z,13.4
2019-05-20T07:59:11.543Z,13.3
2019-05-20T08:00:11.580Z,13.5
2019-05-20T08:01:12.164Z,13.2
2019-05-20T08:02:13.964Z,13
2019-05-20T08:03:11.776Z,13
2019-05-20T08:04:11.800Z,13.1
2019-05-20T08:05:11.884Z,13.2
2019-05-20T08:06:11.917Z,13
2019-05-20T08:07:27.145Z,13.1
2019-05-20T08:08:13.131Z,13
2019-05-20T08:09:12.085Z,13.1
2019-05-20T08:10:12.090Z,13.3
2019-05-20T08:11:12.155Z,13.3
2019-05-20T08:12:12.201Z,13.4
2019-05-20T08:13:12.264Z,13.3
2019-05-20T08:14:12.340Z,13.3
2019-05-20T08:15:12.330Z,13.9
2019-05-20T08:16:12.377Z,14
2019-05-20T08:17:27.775Z,14.2
2019-05-20T08:18:12.497Z,14.1
2019-05-20T08:19:12.562Z,13.3
2019-05-20T08:20:12.582Z,13.2
2019-05-20T08:21:12.615Z,13.2
2019-05-20T08:22:12.621Z,13.6
2019-05-20T08:23:12.671Z,13.6
2019-05-20T08:24:12.767Z,13.8
2019-05-20T08:25:12.757Z,13.7
2019-05-20T08:26:12.825Z,13.8
2019-05-20T08:27:12.844Z,14.1
2019-05-20T08:28:12.907Z,13.7
2019-05-20T08:29:13.075Z,13.5
2019-05-20T08:30:14.094Z,13.2
2019-05-20T08:31:13.021Z,13.8
2019-05-20T08:32:13.085Z,14.2
2019-05-20T08:33:13.115Z,14.2
2019-05-20T08:34:13.133Z,14.1
2019-05-20T08:35:13.190Z,14
2019-05-20T08:36:13.240Z,13.9
2019-05-20T08:37:13.385Z,14
2019-05-20T08:38:13.324Z,13.8
2019-05-20T08:39:15.594Z,13.6
2019-05-20T08:40:13.408Z,14.3
2019-05-20T08:41:13.451Z,14.2
2019-05-20T08:42:13.460Z,14.6
2019-05-20T08:43:13.474Z,14.6
2019-05-20T08:44:13.509Z,14.4
2019-05-20T08:45:13.548Z,14.6
2019-05-20T08:46:13.558Z,14.5
2019-05-20T08:47:13.625Z,14.4
2019-05-20T08:48:13.659Z,14.4
2019-05-20T08:49:13.695Z,14.3
2019-05-20T08:50:16.049Z,14.5
2019-05-20T08:51:13.771Z,14.2
2019-05-20T08:52:13.896Z,13.9
2019-05-20T08:53:13.849Z,14.1
2019-05-20T08:54:13.885Z,14.4
2019-05-20T08:55:13.880Z,14.6
2019-05-20T08:56:13.972Z,14.9
2019-05-20T08:57:14.034Z,14.9
2019-05-20T08:58:13.996Z,15
2019-05-20T08:59:14.079Z,14.8
2019-05-20T09:00:14.054Z,14.3
2019-05-20T09:01:14.057Z,14.5
2019-05-20T09:02:14.144Z,14.3
2019-05-20T09:03:14.128Z,14.7
2019-05-20T09:04:14.157Z,14.3
2019-05-20T09:05:14.176Z,14.5
2019-05-20T09:06:14.189Z,14.5
2019-05-20T09:07:14.216Z,14.7
2019-05-20T09:08:14.217Z,14.8
2019-05-20T09:09:14.243Z,14.9
2019-05-20T09:10:14.327Z,14.6
2019-05-20T09:11:16.794Z,14.5
2019-05-20T09:12:14.304Z,14.3
2019-05-20T09:13:14.394Z,14.4
2019-05-20T09:14:14.332Z,14.4
2019-05-20T09:15:14.340Z,14.8
2019-05-20T09:16:14.359Z,14.8
2019-05-20T09:17:14.422Z,14.7
2019-05-20T09:18:14.393Z,14.8
2019-05-20T09:19:16.898Z,15.1
2019-05-20T09:20:14.451Z,15.3
2019-05-20T09:21:14.531Z,15.3
2019-05-20T09:22:14.462Z,15
2019-05-20T09:23:14.453Z,15.1
2019-05-20T09:24:18.110Z,15.4
2019-05-20T09:25:14.698Z,15.5
2019-05-20T09:26:14.468Z,15.6
2019-05-20T09:27:14.516Z,15.7
2019-05-20T09:28:14.466Z,15.7
2019-05-20T09:29:14.482Z,15.6
2019-05-20T09:30:14.510Z,15.2
2019-05-20T09:31:14.683Z,15.7
2019-05-20T09:32:14.533Z,15.6
2019-05-20T09:33:14.569Z,15.3
2019-05-20T09:34:14.546Z,15.4
2019-05-20T09:35:14.492Z,15.6
2019-05-20T09:36:14.485Z,15.3
2019-05-20T09:37:14.586Z,15.5
2019-05-20T09:38:19.925Z,15.3
2019-05-20T09:39:14.639Z,15.5
2019-05-20T09:40:15.708Z,15.7
2019-05-20T09:41:14.833Z,15.8
2019-05-20T09:42:14.807Z,15.7
2019-05-20T09:43:14.873Z,15.9
2019-05-20T09:44:15.000Z,15.8
2019-05-20T09:45:14.991Z,16.4
2019-05-20T09:46:15.066Z,16.1
2019-05-20T09:47:15.078Z,15.7
2019-05-20T09:48:15.180Z,14.7
2019-05-20T09:49:15.237Z,15
2019-05-20T09:50:15.227Z,15.2
2019-05-20T09:51:15.328Z,15.3
2019-05-20T09:52:15.292Z,14.9
2019-05-20T09:53:15.381Z,15.3
2019-05-20T09:54:15.440Z,14.7
2019-05-20T09:55:15.595Z,14.3
2019-05-20T09:56:15.499Z,14.4
2019-05-20T09:57:15.496Z,14.3
2019-05-20T09:58:15.494Z,14.6
2019-05-20T09:59:16.390Z,15
2019-05-20T10:00:15.612Z,13.9
2019-05-20T10:01:16.670Z,14
2019-05-20T10:02:15.802Z,13.6
2019-05-20T10:03:15.773Z,13.8
2019-05-20T10:04:15.848Z,14.5
2019-05-20T10:05:15.879Z,14.6
2019-05-20T10:06:15.901Z,14.6
2019-05-20T10:07:15.976Z,14.4
2019-05-20T10:08:16.023Z,14.6
2019-05-20T10:09:16.054Z,14.3
2019-05-20T10:10:16.259Z,14.4
2019-05-20T10:11:16.203Z,14.6
2019-05-20T10:12:16.222Z,14.9
2019-05-20T10:13:16.243Z,14.7
2019-05-20T10:14:16.333Z,15.4
2019-05-20T10:15:16.349Z,15.7
2019-05-20T10:16:16.418Z,15.3
2019-05-20T10:17:16.530Z,15.2
2019-05-20T10:18:16.475Z,14.9
2019-05-20T10:19:16.570Z,14.8
2019-05-20T10:20:16.653Z,15.4
2019-05-20T10:21:16.656Z,14.9
2019-05-20T10:22:16.668Z,15.1
2019-05-20T10:23:16.730Z,15.7
2019-05-20T10:24:16.772Z,16
2019-05-20T10:25:16.815Z,14.8
2019-05-20T10:26:16.854Z,14.5
2019-05-20T10:27:16.932Z,14.3
2019-05-20T10:28:16.964Z,15.8
2019-05-20T10:29:17.052Z,16
2019-05-20T10:30:17.055Z,16.1
2019-05-20T10:31:17.047Z,16.1
2019-05-20T10:32:17.090Z,16.2
2019-05-20T10:33:17.118Z,16.2
2019-05-20T10:34:17.147Z,16.5
2019-05-20T10:35:17.184Z,16
2019-05-20T10:36:17.238Z,16.3
2019-05-20T10:37:17.325Z,16.2
2019-05-20T10:38:17.467Z,16.4
2019-05-20T10:39:17.332Z,16.2
2019-05-20T10:40:17.362Z,16.1
2019-05-20T10:41:17.385Z,16.3
2019-05-20T10:42:17.457Z,16.6
2019-05-20T10:43:17.521Z,16.4
2019-05-20T10:44:17.478Z,16.2
2019-05-20T10:45:17.516Z,16.4
2019-05-20T10:46:17.546Z,16.5
2019-05-20T10:47:17.620Z,16.3
2019-05-20T10:48:17.630Z,16.5
2019-05-20T10:49:17.712Z,16.9
2019-05-20T10:50:17.679Z,16.8
2019-05-20T10:51:17.711Z,17
2019-05-20T10:52:17.799Z,16.9
2019-05-20T10:53:17.792Z,16.5
2019-05-20T10:54:17.840Z,16.6
2019-05-20T10:55:17.859Z,16.6
2019-05-20T10:56:17.909Z,16.6
2019-05-20T10:57:17.932Z,16.6
2019-05-20T10:58:17.942Z,16.6
2019-05-20T10:59:17.982Z,16.8
2019-05-20T11:00:18.011Z,16.6
2019-05-20T11:01:18.056Z,16.6
2019-05-20T11:02:18.104Z,16.5
2019-05-20T11:03:18.110Z,16.2
2019-05-20T11:04:18.095Z,16.4
2019-05-20T11:05:18.179Z,16.5
2019-05-20T11:06:20.539Z,16.5
2019-05-20T11:07:18.215Z,16.3
2019-05-20T11:08:18.175Z,16.4
2019-05-20T11:09:18.257Z,16.6
2019-05-20T11:10:18.255Z,16.5
2019-05-20T11:11:18.252Z,16.5
2019-05-20T11:12:18.337Z,16.5
2019-05-20T11:13:18.300Z,16.3
2019-05-20T11:14:18.340Z,16.3
2019-05-20T11:15:18.393Z,16.3
2019-05-20T11:16:18.378Z,16.3
2019-05-20T11:17:18.389Z,16.4
2019-05-20T11:18:18.394Z,16.5
2019-05-20T11:19:18.418Z,16.5
2019-05-20T11:20:18.565Z,16.5
2019-05-20T11:21:18.460Z,16.8
2019-05-20T11:22:18.471Z,16.8
2019-05-20T11:23:18.478Z,16.6
2019-05-20T11:24:18.468Z,16.7
2019-05-20T11:25:18.535Z,16.7
2019-05-20T11:26:18.519Z,16.7
2019-05-20T11:27:18.576Z,16.7
2019-05-20T11:28:18.561Z,16.8
2019-05-20T11:29:18.712Z,17
2019-05-20T11:30:18.584Z,16.7
2019-05-20T11:31:18.601Z,16.7
2019-05-20T11:32:18.625Z,16.9
2019-05-20T11:33:18.617Z,17
2019-05-20T11:34:18.611Z,17
2019-05-20T11:35:18.633Z,17
2019-05-20T11:36:18.751Z,16.9
2019-05-20T11:37:18.691Z,16.9
2019-05-20T11:38:18.726Z,17
2019-05-20T11:39:31.973Z,17
2019-05-20T11:40:18.694Z,17.1
2019-05-20T11:41:18.724Z,17.4
2019-05-20T11:42:18.720Z,17.6
2019-05-20T11:43:18.701Z,17.5
2019-05-20T11:44:18.745Z,17.6
2019-05-20T11:45:18.734Z,17.9
2019-05-20T11:46:18.757Z,18
2019-05-20T11:47:18.734Z,18
2019-05-20T11:48:18.751Z,17.9
2019-05-20T11:49:18.769Z,17.7
2019-05-20T11:50:18.771Z,17.6
2019-05-20T11:51:18.780Z,17.6
2019-05-20T11:52:18.812Z,17.8
2019-05-20T11:53:18.871Z,17.9
2019-05-20T11:54:18.913Z,18
2019-05-20T11:55:19.032Z,18.1
2019-05-20T11:56:18.966Z,18.1
2019-05-20T11:57:19.093Z,18.3
2019-05-20T11:58:19.126Z,18.5
2019-05-20T11:59:19.278Z,18.6
2019-05-20T12:00:19.254Z,18.7
2019-05-20T12:01:19.274Z,18.8
2019-05-20T12:02:19.383Z,18.8
2019-05-20T12:03:19.396Z,18.9
2019-05-20T12:04:19.444Z,18.6
2019-05-20T12:05:19.502Z,18.6
2019-05-20T12:06:19.549Z,18.6
2019-05-20T12:07:19.653Z,18.5
2019-05-20T12:08:19.667Z,18
2019-05-20T12:09:19.775Z,18
2019-05-20T12:10:19.756Z,17.9
2019-05-20T12:11:19.785Z,17.7
2019-05-20T12:12:20.025Z,17.9
2019-05-20T12:13:22.385Z,17.9
2019-05-20T12:14:19.948Z,17.9
2019-05-20T12:15:20.050Z,17.8
2019-05-20T12:16:20.039Z,17.8
2019-05-20T12:17:20.037Z,18
2019-05-20T12:18:20.046Z,18
2019-05-20T12:19:20.109Z,17.8
2019-05-20T12:20:20.211Z,17.5
2019-05-20T12:21:20.203Z,17.2
2019-05-20T12:22:20.214Z,17.4
2019-05-20T12:23:20.239Z,17.4
2019-05-20T12:24:20.283Z,17.4
2019-05-20T12:25:20.345Z,17.5
2019-05-20T12:26:22.549Z,17.4
2019-05-20T12:27:20.434Z,17.4
2019-05-20T12:28:20.451Z,17.1
2019-05-20T12:29:20.501Z,17.2
2019-05-20T12:30:20.565Z,17.2
2019-05-20T12:31:20.544Z,17.5
2019-05-20T12:32:20.549Z,17.6
2019-05-20T12:33:20.641Z,17.5
2019-05-20T12:34:20.603Z,17.4
2019-05-20T12:35:20.600Z,17.5
2019-05-20T12:36:20.625Z,17.5
2019-05-20T12:37:20.688Z,17.6
2019-05-20T12:38:20.778Z,17.7
2019-05-20T12:39:20.755Z,17.6
2019-05-20T12:40:20.801Z,17.6
2019-05-20T12:41:20.858Z,17.7
2019-05-20T12:42:20.882Z,17.8
2019-05-20T12:43:20.912Z,17.7
2019-05-20T12:44:20.938Z,17.7
2019-05-20T12:45:20.994Z,17.2
2019-05-20T12:46:21.015Z,17
2019-05-20T12:47:21.050Z,17.5
2019-05-20T12:48:21.037Z,17.7
2019-05-20T12:49:21.243Z,17.7
2019-05-20T12:50:21.200Z,17.6
2019-05-20T12:51:21.176Z,17.6
2019-05-20T12:52:21.206Z,17.7
2019-05-20T12:53:21.230Z,17.7
2019-05-20T12:54:21.240Z,17.7
2019-05-20T12:55:21.358Z,17.6
2019-05-20T12:56:21.303Z,17.6
2019-05-20T12:57:21.319Z,17.7
2019-05-20T12:58:21.347Z,17.6
2019-05-20T12:59:21.383Z,17.3
2019-05-20T13:00:21.432Z,17.1
2019-05-20T13:01:21.453Z,17.2
2019-05-20T13:02:21.451Z,17.3
2019-05-20T13:03:21.994Z,17.2
2019-05-20T13:04:21.538Z,17.1
2019-05-20T13:05:21.575Z,16.8
2019-05-20T13:06:21.579Z,16.8
2019-05-20T13:07:21.565Z,17.1
2019-05-20T13:08:21.580Z,17.2
2019-05-20T13:09:21.591Z,17.3
2019-05-20T13:10:29.461Z,17.3
2019-05-20T13:11:21.628Z,17.1
2019-05-20T13:12:21.646Z,17.2
2019-05-20T13:13:21.659Z,17.2
2019-05-20T13:14:21.690Z,17
2019-05-20T13:15:21.729Z,17
2019-05-20T13:16:21.745Z,16.9
2019-05-20T13:17:21.794Z,17.1
2019-05-20T13:18:21.737Z,17.3
2019-05-20T13:19:21.751Z,17.4
2019-05-20T13:20:22.107Z,17.3
2019-05-20T13:21:21.812Z,17.3
2019-05-20T13:22:21.815Z,17.4
2019-05-20T13:23:21.781Z,17.6
2019-05-20T13:24:21.796Z,17.6